Terminal Aerodrome Forecast
Issued by NWS

Home | Current Version | Previous Version | Text Only | Print | Product List | Glossary On
Versions: 1 2 3 4 5 6 7 8 9 10 11 12 13 14 15 16 17 18 19 20 21 22 23 24 25 26 27 28 29 30 31 32 33 34 35
762
FTUS44 KFWD 221130
TAFAFW
TAF
KAFW 221130Z 2212/2312 34010KT 2SM -FZDZ BR OVC003
     FM221500 35009KT 3SM SHRA BR VCTS OVC006CB
      TEMPO 2215/2218 -TSRA OVC015CB
     FM221900 35008KT 3SM SHRA BR OVC009
     FM230000 34007KT P6SM SCT008 OVC012
     FM231100 03005KT 5SM SHRA BR VCTS OVC008CB=

USA.gov is the U.S. government's official web portal to all federal, state and local government web resources and services.